sensor_id;sensor_type;location;lat;lon;timestamp;P1;durP1;ratioP1;P2;durP2;ratioP2
51810;SDS011;52468;40.116;18.296;2022-11-02T00:02:23;68.07;;;29.77;;
51810;SDS011;52468;40.116;18.296;2022-11-02T00:04:51;72.67;;;30.10;;
51810;SDS011;52468;40.116;18.296;2022-11-02T00:07:19;64.97;;;28.47;;
51810;SDS011;52468;40.116;18.296;2022-11-02T00:09:47;73.03;;;30.03;;
51810;SDS011;52468;40.116;18.296;2022-11-02T00:12:14;69.60;;;30.90;;
51810;SDS011;52468;40.116;18.296;2022-11-02T00:14:42;62.20;;;30.00;;
51810;SDS011;52468;40.116;18.296;2022-11-02T00:17:10;66.10;;;27.93;;
51810;SDS011;52468;40.116;18.296;2022-11-02T00:19:38;65.93;;;29.33;;
51810;SDS011;52468;40.116;18.296;2022-11-02T00:22:06;64.13;;;27.77;;
51810;SDS011;52468;40.116;18.296;2022-11-02T00:24:34;62.60;;;29.37;;
51810;SDS011;52468;40.116;18.296;2022-11-02T00:27:01;63.80;;;28.77;;
51810;SDS011;52468;40.116;18.296;2022-11-02T00:29:29;62.43;;;28.40;;
51810;SDS011;52468;40.116;18.296;2022-11-02T00:31:59;63.40;;;28.40;;
51810;SDS011;52468;40.116;18.296;2022-11-02T00:34:28;67.57;;;30.37;;
51810;SDS011;52468;40.116;18.296;2022-11-02T00:36:55;69.23;;;26.60;;
51810;SDS011;52468;40.116;18.296;2022-11-02T00:39:23;78.00;;;29.37;;
51810;SDS011;52468;40.116;18.296;2022-11-02T00:41:52;71.77;;;30.80;;
51810;SDS011;52468;40.116;18.296;2022-11-02T00:44:20;78.03;;;32.20;;
51810;SDS011;52468;40.116;18.296;2022-11-02T00:46:48;75.60;;;30.57;;
51810;SDS011;52468;40.116;18.296;2022-11-02T00:49:16;73.90;;;30.50;;
51810;SDS011;52468;40.116;18.296;2022-11-02T00:51:44;72.30;;;30.17;;
51810;SDS011;52468;40.116;18.296;2022-11-02T00:54:14;84.73;;;32.33;;
51810;SDS011;52468;40.116;18.296;2022-11-02T00:56:42;77.53;;;30.97;;
51810;SDS011;52468;40.116;18.296;2022-11-02T00:59:10;79.63;;;33.47;;
51810;SDS011;52468;40.116;18.296;2022-11-02T01:01:38;86.70;;;32.23;;
51810;SDS011;52468;40.116;18.296;2022-11-02T01:04:06;77.97;;;31.20;;
51810;SDS011;52468;40.116;18.296;2022-11-02T01:06:34;75.93;;;31.70;;
51810;SDS011;52468;40.116;18.296;2022-11-02T01:09:04;87.07;;;30.53;;
51810;SDS011;52468;40.116;18.296;2022-11-02T01:11:32;82.57;;;30.13;;
51810;SDS011;52468;40.116;18.296;2022-11-02T01:14:00;88.63;;;32.67;;
51810;SDS011;52468;40.116;18.296;2022-11-02T01:16:28;76.60;;;31.80;;
51810;SDS011;52468;40.116;18.296;2022-11-02T01:18:56;88.67;;;31.70;;
51810;SDS011;52468;40.116;18.296;2022-11-02T01:21:25;87.23;;;35.00;;
51810;SDS011;52468;40.116;18.296;2022-11-02T01:23:54;106.80;;;35.67;;
51810;SDS011;52468;40.116;18.296;2022-11-02T01:26:22;113.23;;;38.10;;
51810;SDS011;52468;40.116;18.296;2022-11-02T01:28:51;136.57;;;38.50;;
51810;SDS011;52468;40.116;18.296;2022-11-02T01:31:20;135.13;;;37.33;;
51810;SDS011;52468;40.116;18.296;2022-11-02T01:33:48;111.37;;;35.50;;
51810;SDS011;52468;40.116;18.296;2022-11-02T01:36:17;101.67;;;34.00;;
51810;SDS011;52468;40.116;18.296;2022-11-02T01:38:54;121.27;;;35.17;;
51810;SDS011;52468;40.116;18.296;2022-11-02T01:41:22;113.90;;;35.37;;
51810;SDS011;52468;40.116;18.296;2022-11-02T01:43:50;100.37;;;32.00;;
51810;SDS011;52468;40.116;18.296;2022-11-02T01:46:22;97.60;;;33.40;;
51810;SDS011;52468;40.116;18.296;2022-11-02T01:49:02;106.53;;;34.07;;
51810;SDS011;52468;40.116;18.296;2022-11-02T01:52:11;95.87;;;35.70;;
51810;SDS011;52468;40.116;18.296;2022-11-02T01:54:38;96.60;;;35.70;;
51810;SDS011;52468;40.116;18.296;2022-11-02T01:57:11;96.17;;;35.23;;
51810;SDS011;52468;40.116;18.296;2022-11-02T01:59:54;87.10;;;35.22;;
51810;SDS011;52468;40.116;18.296;2022-11-02T02:02:24;86.33;;;31.17;;
51810;SDS011;52468;40.116;18.296;2022-11-02T02:04:56;90.43;;;28.07;;
51810;SDS011;52468;40.116;18.296;2022-11-02T02:07:30;71.00;;;25.40;;
51810;SDS011;52468;40.116;18.296;2022-11-02T02:09:59;79.97;;;26.37;;
51810;SDS011;52468;40.116;18.296;2022-11-02T02:12:28;75.93;;;26.77;;
51810;SDS011;52468;40.116;18.296;2022-11-02T02:14:57;80.47;;;29.17;;
51810;SDS011;52468;40.116;18.296;2022-11-02T02:17:42;77.10;;;30.83;;
51810;SDS011;52468;40.116;18.296;2022-11-02T02:20:18;100.77;;;31.90;;
51810;SDS011;52468;40.116;18.296;2022-11-02T02:23:29;106.37;;;34.77;;
51810;SDS011;52468;40.116;18.296;2022-11-02T02:26:01;96.40;;;31.13;;
51810;SDS011;52468;40.116;18.296;2022-11-02T02:33:58;106.53;;;41.53;;
51810;SDS011;52468;40.116;18.296;2022-11-02T02:36:44;132.67;;;52.67;;
51810;SDS011;52468;40.116;18.296;2022-11-02T02:39:22;140.03;;;55.27;;
51810;SDS011;52468;40.116;18.296;2022-11-02T02:41:54;124.67;;;54.93;;
51810;SDS011;52468;40.116;18.296;2022-11-02T02:44:25;139.97;;;61.33;;
51810;SDS011;52468;40.116;18.296;2022-11-02T02:47:04;145.93;;;61.97;;
51810;SDS011;52468;40.116;18.296;2022-11-02T02:49:37;124.17;;;57.00;;
51810;SDS011;52468;40.116;18.296;2022-11-02T02:52:13;121.97;;;55.43;;
51810;SDS011;52468;40.116;18.296;2022-11-02T02:54:43;120.33;;;54.37;;
51810;SDS011;52468;40.116;18.296;2022-11-02T02:57:14;133.13;;;53.73;;
51810;SDS011;52468;40.116;18.296;2022-11-02T02:59:45;123.70;;;52.07;;
51810;SDS011;52468;40.116;18.296;2022-11-02T03:02:24;119.05;;;49.42;;
51810;SDS011;52468;40.116;18.296;2022-11-02T03:04:57;113.93;;;50.27;;
51810;SDS011;52468;40.116;18.296;2022-11-02T03:07:29;96.57;;;43.47;;
51810;SDS011;52468;40.116;18.296;2022-11-02T03:15:18;68.20;;;34.33;;
51810;SDS011;52468;40.116;18.296;2022-11-02T03:20:57;82.73;;;34.00;;
51810;SDS011;52468;40.116;18.296;2022-11-02T03:29:37;75.53;;;32.57;;
51810;SDS011;52468;40.116;18.296;2022-11-02T03:32:19;88.13;;;37.93;;
51810;SDS011;52468;40.116;18.296;2022-11-02T03:34:54;101.90;;;39.80;;
51810;SDS011;52468;40.116;18.296;2022-11-02T03:37:28;77.93;;;32.88;;
51810;SDS011;52468;40.116;18.296;2022-11-02T03:40:13;99.53;;;36.53;;
51810;SDS011;52468;40.116;18.296;2022-11-02T03:42:43;97.00;;;35.75;;
51810;SDS011;52468;40.116;18.296;2022-11-02T03:45:17;98.27;;;35.43;;
51810;SDS011;52468;40.116;18.296;2022-11-02T03:47:50;84.13;;;34.10;;
51810;SDS011;52468;40.116;18.296;2022-11-02T03:50:22;82.13;;;34.70;;
51810;SDS011;52468;40.116;18.296;2022-11-02T03:52:59;86.17;;;34.53;;
51810;SDS011;52468;40.116;18.296;2022-11-02T03:55:40;80.77;;;33.23;;
51810;SDS011;52468;40.116;18.296;2022-11-02T03:58:14;90.83;;;34.27;;
51810;SDS011;52468;40.116;18.296;2022-11-02T04:00:44;99.77;;;36.70;;
51810;SDS011;52468;40.116;18.296;2022-11-02T04:03:17;97.77;;;35.97;;
51810;SDS011;52468;40.116;18.296;2022-11-02T04:05:48;90.73;;;35.73;;
51810;SDS011;52468;40.116;18.296;2022-11-02T04:08:43;88.80;;;33.17;;
51810;SDS011;52468;40.116;18.296;2022-11-02T04:11:16;95.17;;;38.03;;
51810;SDS011;52468;40.116;18.296;2022-11-02T04:14:07;97.23;;;39.50;;
51810;SDS011;52468;40.116;18.296;2022-11-02T04:16:55;98.67;;;39.73;;
51810;SDS011;52468;40.116;18.296;2022-11-02T04:19:48;96.63;;;39.00;;
51810;SDS011;52468;40.116;18.296;2022-11-02T04:22:19;94.03;;;36.67;;
51810;SDS011;52468;40.116;18.296;2022-11-02T04:25:14;93.93;;;38.43;;
51810;SDS011;52468;40.116;18.296;2022-11-02T04:28:04;95.32;;;39.08;;
51810;SDS011;52468;40.116;18.296;2022-11-02T04:30:37;104.23;;;37.97;;
51810;SDS011;52468;40.116;18.296;2022-11-02T04:33:05;101.80;;;37.67;;
51810;SDS011;52468;40.116;18.296;2022-11-02T04:36:01;114.30;;;38.53;;
51810;SDS011;52468;40.116;18.296;2022-11-02T04:41:14;88.57;;;35.20;;
51810;SDS011;52468;40.116;18.296;2022-11-02T04:44:06;94.57;;;36.63;;
51810;SDS011;52468;40.116;18.296;2022-11-02T04:46:40;85.13;;;35.77;;
51810;SDS011;52468;40.116;18.296;2022-11-02T04:49:11;94.70;;;34.03;;
51810;SDS011;52468;40.116;18.296;2022-11-02T04:51:41;85.43;;;35.97;;
51810;SDS011;52468;40.116;18.296;2022-11-02T04:54:10;77.87;;;32.50;;
51810;SDS011;52468;40.116;18.296;2022-11-02T04:56:39;67.67;;;30.17;;
51810;SDS011;52468;40.116;18.296;2022-11-02T04:59:07;83.57;;;29.67;;
51810;SDS011;52468;40.116;18.296;2022-11-02T05:01:36;77.07;;;29.40;;
51810;SDS011;52468;40.116;18.296;2022-11-02T05:04:05;70.57;;;27.97;;
51810;SDS011;52468;40.116;18.296;2022-11-02T05:06:35;65.33;;;25.53;;
51810;SDS011;52468;40.116;18.296;2022-11-02T05:09:03;56.97;;;24.43;;
51810;SDS011;52468;40.116;18.296;2022-11-02T05:11:32;47.57;;;20.83;;
51810;SDS011;52468;40.116;18.296;2022-11-02T05:14:01;47.87;;;20.83;;
51810;SDS011;52468;40.116;18.296;2022-11-02T05:16:29;44.83;;;22.17;;
51810;SDS011;52468;40.116;18.296;2022-11-02T05:18:57;49.30;;;20.80;;
51810;SDS011;52468;40.116;18.296;2022-11-02T05:21:26;47.40;;;22.83;;
51810;SDS011;52468;40.116;18.296;2022-11-02T05:23:54;50.23;;;23.00;;
51810;SDS011;52468;40.116;18.296;2022-11-02T05:26:22;42.27;;;22.33;;
51810;SDS011;52468;40.116;18.296;2022-11-02T05:28:50;51.83;;;23.17;;
51810;SDS011;52468;40.116;18.296;2022-11-02T05:31:19;53.83;;;22.93;;
51810;SDS011;52468;40.116;18.296;2022-11-02T05:33:48;54.63;;;24.27;;
51810;SDS011;52468;40.116;18.296;2022-11-02T05:36:20;56.47;;;23.80;;
51810;SDS011;52468;40.116;18.296;2022-11-02T05:38:53;48.30;;;22.83;;
51810;SDS011;52468;40.116;18.296;2022-11-02T05:41:22;50.47;;;25.37;;
51810;SDS011;52468;40.116;18.296;2022-11-02T05:43:53;58.30;;;24.70;;
51810;SDS011;52468;40.116;18.296;2022-11-02T05:46:22;61.77;;;23.70;;
51810;SDS011;52468;40.116;18.296;2022-11-02T05:48:50;52.80;;;24.27;;
51810;SDS011;52468;40.116;18.296;2022-11-02T05:51:18;61.37;;;26.00;;
51810;SDS011;52468;40.116;18.296;2022-11-02T05:53:46;55.27;;;26.57;;
51810;SDS011;52468;40.116;18.296;2022-11-02T05:56:14;53.60;;;25.37;;
51810;SDS011;52468;40.116;18.296;2022-11-02T05:58:44;58.70;;;27.07;;
51810;SDS011;52468;40.116;18.296;2022-11-02T06:01:12;71.50;;;32.23;;
51810;SDS011;52468;40.116;18.296;2022-11-02T06:03:40;67.93;;;31.77;;
51810;SDS011;52468;40.116;18.296;2022-11-02T06:06:08;70.33;;;31.77;;
51810;SDS011;52468;40.116;18.296;2022-11-02T06:08:37;66.07;;;30.57;;
51810;SDS011;52468;40.116;18.296;2022-11-02T06:11:06;67.67;;;33.73;;
51810;SDS011;52468;40.116;18.296;2022-11-02T06:13:35;70.83;;;31.37;;
51810;SDS011;52468;40.116;18.296;2022-11-02T06:16:03;64.83;;;31.80;;
51810;SDS011;52468;40.116;18.296;2022-11-02T06:18:34;77.17;;;32.47;;
51810;SDS011;52468;40.116;18.296;2022-11-02T06:21:02;61.47;;;31.07;;
51810;SDS011;52468;40.116;18.296;2022-11-02T06:23:31;69.73;;;32.13;;
51810;SDS011;52468;40.116;18.296;2022-11-02T06:25:59;55.33;;;30.43;;
51810;SDS011;52468;40.116;18.296;2022-11-02T06:28:27;62.73;;;30.53;;
51810;SDS011;52468;40.116;18.296;2022-11-02T06:30:56;71.63;;;33.93;;
51810;SDS011;52468;40.116;18.296;2022-11-02T06:33:24;72.50;;;32.53;;
51810;SDS011;52468;40.116;18.296;2022-11-02T06:35:53;72.60;;;29.97;;
51810;SDS011;52468;40.116;18.296;2022-11-02T06:38:21;80.83;;;27.80;;
51810;SDS011;52468;40.116;18.296;2022-11-02T06:40:59;70.57;;;28.10;;
51810;SDS011;52468;40.116;18.296;2022-11-02T06:43:30;84.90;;;28.57;;
51810;SDS011;52468;40.116;18.296;2022-11-02T06:45:58;84.87;;;25.10;;
51810;SDS011;52468;40.116;18.296;2022-11-02T06:48:26;69.23;;;25.97;;
51810;SDS011;52468;40.116;18.296;2022-11-02T06:50:59;86.65;;;30.25;;
51810;SDS011;52468;40.116;18.296;2022-11-02T06:53:27;78.90;;;27.63;;
51810;SDS011;52468;40.116;18.296;2022-11-02T06:55:55;79.60;;;27.70;;
51810;SDS011;52468;40.116;18.296;2022-11-02T06:58:24;78.77;;;28.77;;
51810;SDS011;52468;40.116;18.296;2022-11-02T07:00:57;87.77;;;29.40;;
51810;SDS011;52468;40.116;18.296;2022-11-02T07:03:29;78.70;;;28.30;;
51810;SDS011;52468;40.116;18.296;2022-11-02T07:05:58;86.10;;;32.47;;
51810;SDS011;52468;40.116;18.296;2022-11-02T07:08:26;107.40;;;34.07;;
51810;SDS011;52468;40.116;18.296;2022-11-02T07:10:54;102.93;;;33.73;;
51810;SDS011;52468;40.116;18.296;2022-11-02T07:13:22;110.80;;;38.53;;
51810;SDS011;52468;40.116;18.296;2022-11-02T07:15:51;105.87;;;38.23;;
51810;SDS011;52468;40.116;18.296;2022-11-02T07:18:20;102.10;;;36.77;;
51810;SDS011;52468;40.116;18.296;2022-11-02T07:20:48;124.70;;;43.90;;
51810;SDS011;52468;40.116;18.296;2022-11-02T07:23:16;111.73;;;43.27;;
51810;SDS011;52468;40.116;18.296;2022-11-02T07:25:44;119.03;;;43.13;;
51810;SDS011;52468;40.116;18.296;2022-11-02T07:28:12;113.00;;;47.37;;
51810;SDS011;52468;40.116;18.296;2022-11-02T07:30:39;108.60;;;45.17;;
51810;SDS011;52468;40.116;18.296;2022-11-02T07:33:07;104.30;;;46.17;;
51810;SDS011;52468;40.116;18.296;2022-11-02T07:35:35;105.43;;;49.57;;
51810;SDS011;52468;40.116;18.296;2022-11-02T07:38:04;109.80;;;53.93;;
51810;SDS011;52468;40.116;18.296;2022-11-02T07:40:34;94.13;;;50.03;;
51810;SDS011;52468;40.116;18.296;2022-11-02T07:43:02;92.13;;;50.57;;
51810;SDS011;52468;40.116;18.296;2022-11-02T07:45:51;86.80;;;47.43;;
51810;SDS011;52468;40.116;18.296;2022-11-02T07:48:19;80.20;;;44.90;;
51810;SDS011;52468;40.116;18.296;2022-11-02T07:50:47;73.03;;;40.33;;
51810;SDS011;52468;40.116;18.296;2022-11-02T07:53:15;76.87;;;37.03;;
51810;SDS011;52468;40.116;18.296;2022-11-02T07:55:43;57.87;;;32.63;;
51810;SDS011;52468;40.116;18.296;2022-11-02T07:58:11;45.23;;;29.23;;
51810;SDS011;52468;40.116;18.296;2022-11-02T08:00:41;43.83;;;28.37;;
51810;SDS011;52468;40.116;18.296;2022-11-02T08:03:09;45.27;;;29.20;;
51810;SDS011;52468;40.116;18.296;2022-11-02T08:05:39;37.93;;;25.03;;
51810;SDS011;52468;40.116;18.296;2022-11-02T08:08:12;35.43;;;24.33;;
51810;SDS011;52468;40.116;18.296;2022-11-02T08:10:42;38.63;;;23.80;;
51810;SDS011;52468;40.116;18.296;2022-11-02T08:13:13;37.03;;;22.37;;
51810;SDS011;52468;40.116;18.296;2022-11-02T08:15:48;34.73;;;21.73;;
51810;SDS011;52468;40.116;18.296;2022-11-02T08:18:18;43.20;;;23.00;;
51810;SDS011;52468;40.116;18.296;2022-11-02T08:20:47;38.63;;;21.83;;
51810;SDS011;52468;40.116;18.296;2022-11-02T08:23:17;35.20;;;22.70;;
51810;SDS011;52468;40.116;18.296;2022-11-02T08:25:47;40.97;;;22.13;;
51810;SDS011;52468;40.116;18.296;2022-11-02T08:28:18;31.63;;;21.17;;
51810;SDS011;52468;40.116;18.296;2022-11-02T08:30:51;30.23;;;19.70;;
51810;SDS011;52468;40.116;18.296;2022-11-02T08:33:20;29.10;;;19.27;;
51810;SDS011;52468;40.116;18.296;2022-11-02T08:35:48;30.97;;;19.53;;
51810;SDS011;52468;40.116;18.296;2022-11-02T08:38:16;28.37;;;17.07;;
51810;SDS011;52468;40.116;18.296;2022-11-02T08:40:44;30.57;;;17.90;;
51810;SDS011;52468;40.116;18.296;2022-11-02T08:43:12;29.30;;;18.37;;
51810;SDS011;52468;40.116;18.296;2022-11-02T08:45:42;30.00;;;16.23;;
51810;SDS011;52468;40.116;18.296;2022-11-02T08:48:31;22.83;;;15.97;;
51810;SDS011;52468;40.116;18.296;2022-11-02T08:50:59;29.33;;;15.83;;
51810;SDS011;52468;40.116;18.296;2022-11-02T08:53:27;32.63;;;16.30;;
51810;SDS011;52468;40.116;18.296;2022-11-02T08:55:56;32.57;;;16.40;;
51810;SDS011;52468;40.116;18.296;2022-11-02T08:58:25;26.00;;;16.43;;
51810;SDS011;52468;40.116;18.296;2022-11-02T09:00:54;25.03;;;16.10;;
51810;SDS011;52468;40.116;18.296;2022-11-02T09:03:22;29.47;;;15.87;;
51810;SDS011;52468;40.116;18.296;2022-11-02T09:05:56;18.73;;;13.47;;
51810;SDS011;52468;40.116;18.296;2022-11-02T09:10:56;23.17;;;15.33;;
51810;SDS011;52468;40.116;18.296;2022-11-02T09:13:26;24.27;;;14.47;;
51810;SDS011;52468;40.116;18.296;2022-11-02T09:15:55;19.73;;;12.67;;
51810;SDS011;52468;40.116;18.296;2022-11-02T09:18:24;25.63;;;13.77;;
51810;SDS011;52468;40.116;18.296;2022-11-02T09:20:53;16.83;;;10.27;;
51810;SDS011;52468;40.116;18.296;2022-11-02T09:23:21;17.97;;;11.37;;
51810;SDS011;52468;40.116;18.296;2022-11-02T09:25:49;15.77;;;9.97;;
51810;SDS011;52468;40.116;18.296;2022-11-02T09:28:17;17.47;;;10.80;;
51810;SDS011;52468;40.116;18.296;2022-11-02T09:30:45;24.40;;;11.73;;
51810;SDS011;52468;40.116;18.296;2022-11-02T09:33:13;17.17;;;9.37;;
51810;SDS011;52468;40.116;18.296;2022-11-02T09:35:45;17.57;;;9.87;;
51810;SDS011;52468;40.116;18.296;2022-11-02T09:38:14;17.40;;;9.90;;
51810;SDS011;52468;40.116;18.296;2022-11-02T09:40:47;20.47;;;12.10;;
51810;SDS011;52468;40.116;18.296;2022-11-02T09:43:49;25.40;;;11.97;;
51810;SDS011;52468;40.116;18.296;2022-11-02T09:46:25;20.10;;;11.90;;
51810;SDS011;52468;40.116;18.296;2022-11-02T09:48:58;19.80;;;11.10;;
51810;SDS011;52468;40.116;18.296;2022-11-02T09:54:24;13.90;;;8.00;;
51810;SDS011;52468;40.116;18.296;2022-11-02T09:57:07;15.93;;;8.40;;
51810;SDS011;52468;40.116;18.296;2022-11-02T09:59:37;11.32;;;8.10;;
51810;SDS011;52468;40.116;18.296;2022-11-02T10:10:57;11.53;;;7.30;;
51810;SDS011;52468;40.116;18.296;2022-11-02T10:13:38;11.17;;;7.30;;
51810;SDS011;52468;40.116;18.296;2022-11-02T10:16:23;11.50;;;6.83;;
51810;SDS011;52468;40.116;18.296;2022-11-02T10:18:57;6.90;;;6.20;;
51810;SDS011;52468;40.116;18.296;2022-11-02T10:21:26;7.23;;;4.80;;
51810;SDS011;52468;40.116;18.296;2022-11-02T10:24:03;9.07;;;5.50;;
51810;SDS011;52468;40.116;18.296;2022-11-02T10:26:58;9.60;;;6.40;;
51810;SDS011;52468;40.116;18.296;2022-11-02T10:32:20;8.63;;;5.47;;
51810;SDS011;52468;40.116;18.296;2022-11-02T10:34:48;9.27;;;5.27;;
51810;SDS011;52468;40.116;18.296;2022-11-02T10:48:59;9.93;;;6.87;;
51810;SDS011;52468;40.116;18.296;2022-11-02T10:51:40;14.60;;;7.55;;
51810;SDS011;52468;40.116;18.296;2022-11-02T10:54:11;9.37;;;5.77;;
51810;SDS011;52468;40.116;18.296;2022-11-02T10:59:16;10.80;;;6.90;;
51810;SDS011;52468;40.116;18.296;2022-11-02T11:01:46;7.80;;;6.00;;
51810;SDS011;52468;40.116;18.296;2022-11-02T11:04:25;9.30;;;5.67;;
51810;SDS011;52468;40.116;18.296;2022-11-02T11:06:55;12.98;;;6.85;;
51810;SDS011;52468;40.116;18.296;2022-11-02T11:09:25;9.80;;;5.80;;
51810;SDS011;52468;40.116;18.296;2022-11-02T11:11:58;11.00;;;5.80;;
51810;SDS011;52468;40.116;18.296;2022-11-02T11:14:30;13.50;;;6.37;;
51810;SDS011;52468;40.116;18.296;2022-11-02T11:17:26;10.13;;;6.40;;
51810;SDS011;52468;40.116;18.296;2022-11-02T11:25:53;17.10;;;7.27;;
51810;SDS011;52468;40.116;18.296;2022-11-02T11:28:38;10.23;;;6.20;;
51810;SDS011;52468;40.116;18.296;2022-11-02T11:31:18;12.80;;;6.67;;
51810;SDS011;52468;40.116;18.296;2022-11-02T11:33:49;9.50;;;6.87;;
51810;SDS011;52468;40.116;18.296;2022-11-02T11:36:21;8.50;;;5.33;;
51810;SDS011;52468;40.116;18.296;2022-11-02T11:39:02;14.33;;;5.83;;
51810;SDS011;52468;40.116;18.296;2022-11-02T11:41:45;9.13;;;5.90;;
51810;SDS011;52468;40.116;18.296;2022-11-02T11:44:13;10.50;;;6.07;;
51810;SDS011;52468;40.116;18.296;2022-11-02T11:46:43;14.90;;;7.23;;
51810;SDS011;52468;40.116;18.296;2022-11-02T11:49:20;13.63;;;8.00;;
51810;SDS011;52468;40.116;18.296;2022-11-02T11:52:01;10.93;;;6.90;;
51810;SDS011;52468;40.116;18.296;2022-11-02T11:54:31;11.93;;;7.73;;
51810;SDS011;52468;40.116;18.296;2022-11-02T11:59:49;11.70;;;7.27;;
51810;SDS011;52468;40.116;18.296;2022-11-02T12:04:57;10.33;;;6.80;;
51810;SDS011;52468;40.116;18.296;2022-11-02T12:10:52;13.10;;;5.70;;
51810;SDS011;52468;40.116;18.296;2022-11-02T12:13:54;10.77;;;6.13;;
51810;SDS011;52468;40.116;18.296;2022-11-02T12:22:01;7.20;;;5.50;;
51810;SDS011;52468;40.116;18.296;2022-11-02T12:27:52;11.43;;;5.93;;
51810;SDS011;52468;40.116;18.296;2022-11-02T12:42:31;11.37;;;6.57;;
51810;SDS011;52468;40.116;18.296;2022-11-02T12:45:10;9.60;;;5.97;;
51810;SDS011;52468;40.116;18.296;2022-11-02T12:55:40;11.90;;;6.30;;
51810;SDS011;52468;40.116;18.296;2022-11-02T12:58:25;10.43;;;6.27;;
51810;SDS011;52468;40.116;18.296;2022-11-02T13:06:42;13.17;;;5.70;;
51810;SDS011;52468;40.116;18.296;2022-11-02T13:09:16;16.07;;;5.60;;
51810;SDS011;52468;40.116;18.296;2022-11-02T13:11:50;9.43;;;4.50;;
51810;SDS011;52468;40.116;18.296;2022-11-02T13:14:33;8.47;;;4.67;;
51810;SDS011;52468;40.116;18.296;2022-11-02T13:17:13;6.80;;;4.70;;
51810;SDS011;52468;40.116;18.296;2022-11-02T13:22:51;13.37;;;5.03;;
51810;SDS011;52468;40.116;18.296;2022-11-02T13:25:48;11.57;;;4.47;;
51810;SDS011;52468;40.116;18.296;2022-11-02T13:31:14;7.30;;;4.50;;
51810;SDS011;52468;40.116;18.296;2022-11-02T13:33:47;6.90;;;5.17;;
51810;SDS011;52468;40.116;18.296;2022-11-02T13:36:19;8.68;;;4.85;;
51810;SDS011;52468;40.116;18.296;2022-11-02T13:39:04;7.93;;;4.67;;
51810;SDS011;52468;40.116;18.296;2022-11-02T13:41:54;8.63;;;4.47;;
51810;SDS011;52468;40.116;18.296;2022-11-02T13:50:30;7.47;;;4.43;;
51810;SDS011;52468;40.116;18.296;2022-11-02T13:53:00;10.83;;;4.70;;
51810;SDS011;52468;40.116;18.296;2022-11-02T13:55:40;7.70;;;5.43;;
51810;SDS011;52468;40.116;18.296;2022-11-02T13:58:35;6.40;;;4.90;;
51810;SDS011;52468;40.116;18.296;2022-11-02T14:01:09;8.53;;;4.93;;
51810;SDS011;52468;40.116;18.296;2022-11-02T14:03:45;10.38;;;6.80;;
51810;SDS011;52468;40.116;18.296;2022-11-02T14:06:21;9.23;;;4.37;;
51810;SDS011;52468;40.116;18.296;2022-11-02T14:09:00;9.33;;;5.50;;
51810;SDS011;52468;40.116;18.296;2022-11-02T14:11:47;6.93;;;4.80;;
51810;SDS011;52468;40.116;18.296;2022-11-02T14:48:42;11.70;;;6.00;;
51810;SDS011;52468;40.116;18.296;2022-11-02T14:51:36;14.40;;;5.20;;
51810;SDS011;52468;40.116;18.296;2022-11-02T14:54:05;10.73;;;6.33;;
51810;SDS011;52468;40.116;18.296;2022-11-02T14:59:28;10.57;;;7.13;;
51810;SDS011;52468;40.116;18.296;2022-11-02T15:02:01;13.67;;;7.50;;
51810;SDS011;52468;40.116;18.296;2022-11-02T15:04:33;11.93;;;7.63;;
51810;SDS011;52468;40.116;18.296;2022-11-02T15:07:02;11.73;;;7.87;;
51810;SDS011;52468;40.116;18.296;2022-11-02T15:25:32;14.23;;;9.13;;
51810;SDS011;52468;40.116;18.296;2022-11-02T15:28:05;14.33;;;10.33;;
51810;SDS011;52468;40.116;18.296;2022-11-02T15:30:51;13.80;;;9.93;;
51810;SDS011;52468;40.116;18.296;2022-11-02T15:33:41;13.13;;;8.97;;
51810;SDS011;52468;40.116;18.296;2022-11-02T15:36:27;16.50;;;9.80;;
51810;SDS011;52468;40.116;18.296;2022-11-02T15:39:05;20.57;;;11.57;;
51810;SDS011;52468;40.116;18.296;2022-11-02T15:41:38;13.17;;;9.30;;
51810;SDS011;52468;40.116;18.296;2022-11-02T15:47:01;20.43;;;10.57;;
51810;SDS011;52468;40.116;18.296;2022-11-02T15:52:43;22.90;;;12.33;;
51810;SDS011;52468;40.116;18.296;2022-11-02T15:58:18;22.27;;;13.70;;
51810;SDS011;52468;40.116;18.296;2022-11-02T16:03:48;23.13;;;13.17;;
51810;SDS011;52468;40.116;18.296;2022-11-02T16:06:24;22.10;;;14.80;;
51810;SDS011;52468;40.116;18.296;2022-11-02T16:08:56;22.43;;;15.50;;
51810;SDS011;52468;40.116;18.296;2022-11-02T16:11:27;26.67;;;15.40;;
51810;SDS011;52468;40.116;18.296;2022-11-02T16:14:16;22.77;;;14.60;;
51810;SDS011;52468;40.116;18.296;2022-11-02T16:16:45;24.17;;;15.87;;
51810;SDS011;52468;40.116;18.296;2022-11-02T16:19:17;25.27;;;14.70;;
51810;SDS011;52468;40.116;18.296;2022-11-02T16:21:48;22.93;;;16.37;;
51810;SDS011;52468;40.116;18.296;2022-11-02T16:24:17;30.00;;;16.70;;
51810;SDS011;52468;40.116;18.296;2022-11-02T16:26:45;27.20;;;16.10;;
51810;SDS011;52468;40.116;18.296;2022-11-02T16:29:25;28.10;;;18.00;;
51810;SDS011;52468;40.116;18.296;2022-11-02T16:31:57;33.43;;;17.13;;
51810;SDS011;52468;40.116;18.296;2022-11-02T16:34:28;32.37;;;17.53;;
51810;SDS011;52468;40.116;18.296;2022-11-02T16:36:57;37.70;;;17.53;;
51810;SDS011;52468;40.116;18.296;2022-11-02T16:39:31;40.67;;;19.45;;
51810;SDS011;52468;40.116;18.296;2022-11-02T16:42:07;29.17;;;19.33;;
51810;SDS011;52468;40.116;18.296;2022-11-02T16:44:40;30.80;;;19.43;;
51810;SDS011;52468;40.116;18.296;2022-11-02T16:52:18;38.93;;;20.97;;
51810;SDS011;52468;40.116;18.296;2022-11-02T16:54:56;32.90;;;20.40;;
51810;SDS011;52468;40.116;18.296;2022-11-02T16:57:24;42.33;;;23.67;;
51810;SDS011;52468;40.116;18.296;2022-11-02T16:59:56;40.80;;;23.93;;
51810;SDS011;52468;40.116;18.296;2022-11-02T17:02:34;49.30;;;23.73;;
51810;SDS011;52468;40.116;18.296;2022-11-02T17:05:06;43.00;;;25.27;;
51810;SDS011;52468;40.116;18.296;2022-11-02T17:08:03;40.00;;;26.27;;
51810;SDS011;52468;40.116;18.296;2022-11-02T17:10:32;44.53;;;25.53;;
51810;SDS011;52468;40.116;18.296;2022-11-02T17:13:04;39.13;;;24.63;;
51810;SDS011;52468;40.116;18.296;2022-11-02T17:15:39;46.03;;;26.57;;
51810;SDS011;52468;40.116;18.296;2022-11-02T17:18:22;51.03;;;28.97;;
51810;SDS011;52468;40.116;18.296;2022-11-02T17:23:41;52.13;;;28.27;;
51810;SDS011;52468;40.116;18.296;2022-11-02T17:34:09;50.10;;;29.27;;
51810;SDS011;52468;40.116;18.296;2022-11-02T17:36:43;58.00;;;33.13;;
51810;SDS011;52468;40.116;18.296;2022-11-02T17:39:14;58.77;;;34.97;;
51810;SDS011;52468;40.116;18.296;2022-11-02T17:41:43;62.77;;;32.77;;
51810;SDS011;52468;40.116;18.296;2022-11-02T17:44:34;57.87;;;31.90;;
51810;SDS011;52468;40.116;18.296;2022-11-02T17:47:04;61.53;;;34.63;;
51810;SDS011;52468;40.116;18.296;2022-11-02T17:49:38;59.93;;;32.93;;
51810;SDS011;52468;40.116;18.296;2022-11-02T17:52:05;66.77;;;37.60;;
51810;SDS011;52468;40.116;18.296;2022-11-02T17:54:36;71.37;;;35.27;;
51810;SDS011;52468;40.116;18.296;2022-11-02T17:57:07;66.53;;;34.00;;
51810;SDS011;52468;40.116;18.296;2022-11-02T17:59:38;59.80;;;32.27;;
51810;SDS011;52468;40.116;18.296;2022-11-02T18:02:09;59.43;;;30.00;;